sensor_id;sensor_type;location;lat;lon;timestamp;temperature;humidity
55488;DHT22;41352;53.158;6.788;2022-09-09T00:01:33;14.40;99.90
55488;DHT22;41352;53.158;6.788;2022-09-09T00:04:24;14.40;99.90
55488;DHT22;41352;53.158;6.788;2022-09-09T00:10:14;14.30;99.90
55488;DHT22;41352;53.158;6.788;2022-09-09T00:18:44;14.20;99.90
55488;DHT22;41352;53.158;6.788;2022-09-09T00:21:17;14.20;99.90
55488;DHT22;41352;53.158;6.788;2022-09-09T00:23:50;14.20;99.90
55488;DHT22;41352;53.158;6.788;2022-09-09T00:31:38;14.20;99.90
55488;DHT22;41352;53.158;6.788;2022-09-09T00:34:13;14.20;99.90
55488;DHT22;41352;53.158;6.788;2022-09-09T00:36:40;14.20;99.90
55488;DHT22;41352;53.158;6.788;2022-09-09T00:39:13;14.20;99.90
55488;DHT22;41352;53.158;6.788;2022-09-09T00:42:02;14.20;99.90
55488;DHT22;41352;53.158;6.788;2022-09-09T00:44:37;14.20;99.90
55488;DHT22;41352;53.158;6.788;2022-09-09T00:55:16;14.00;99.90
55488;DHT22;41352;53.158;6.788;2022-09-09T00:57:44;14.00;99.90
55488;DHT22;41352;53.158;6.788;2022-09-09T01:00:24;14.00;99.90
55488;DHT22;41352;53.158;6.788;2022-09-09T01:05:54;13.90;99.90
55488;DHT22;41352;53.158;6.788;2022-09-09T01:17:03;13.90;99.90
55488;DHT22;41352;53.158;6.788;2022-09-09T01:25:01;13.80;99.90
55488;DHT22;41352;53.158;6.788;2022-09-09T01:27:31;13.80;99.90
55488;DHT22;41352;53.158;6.788;2022-09-09T01:29:58;13.70;99.90
55488;DHT22;41352;53.158;6.788;2022-09-09T01:32:47;13.80;99.90
55488;DHT22;41352;53.158;6.788;2022-09-09T01:38:31;13.60;99.90
55488;DHT22;41352;53.158;6.788;2022-09-09T01:40:58;13.70;99.90
55488;DHT22;41352;53.158;6.788;2022-09-09T01:43:25;13.60;99.90
55488;DHT22;41352;53.158;6.788;2022-09-09T01:45:53;13.60;99.90
55488;DHT22;41352;53.158;6.788;2022-09-09T01:48:21;13.60;99.90
55488;DHT22;41352;53.158;6.788;2022-09-09T01:50:47;13.60;99.90
55488;DHT22;41352;53.158;6.788;2022-09-09T01:53:14;13.60;99.90
55488;DHT22;41352;53.158;6.788;2022-09-09T01:55:54;13.60;99.90
55488;DHT22;41352;53.158;6.788;2022-09-09T02:01:15;13.50;99.90
55488;DHT22;41352;53.158;6.788;2022-09-09T02:03:47;13.40;99.90
55488;DHT22;41352;53.158;6.788;2022-09-09T02:08:54;13.50;99.90
55488;DHT22;41352;53.158;6.788;2022-09-09T02:11:26;13.40;99.90
55488;DHT22;41352;53.158;6.788;2022-09-09T02:14:16;13.40;99.90
55488;DHT22;41352;53.158;6.788;2022-09-09T02:16:55;13.40;99.90
55488;DHT22;41352;53.158;6.788;2022-09-09T02:19:26;13.40;99.90
55488;DHT22;41352;53.158;6.788;2022-09-09T02:21:55;13.40;99.90
55488;DHT22;41352;53.158;6.788;2022-09-09T02:24:22;13.40;99.90
55488;DHT22;41352;53.158;6.788;2022-09-09T02:26:50;13.50;99.90
55488;DHT22;41352;53.158;6.788;2022-09-09T02:29:22;13.40;99.90
55488;DHT22;41352;53.158;6.788;2022-09-09T02:31:51;13.50;99.90
55488;DHT22;41352;53.158;6.788;2022-09-09T02:34:21;13.50;99.90
55488;DHT22;41352;53.158;6.788;2022-09-09T02:36:48;13.50;99.90
55488;DHT22;41352;53.158;6.788;2022-09-09T02:39:15;13.50;99.90
55488;DHT22;41352;53.158;6.788;2022-09-09T02:41:41;13.60;99.90
55488;DHT22;41352;53.158;6.788;2022-09-09T02:44:15;13.60;99.90
55488;DHT22;41352;53.158;6.788;2022-09-09T02:49:56;13.60;99.90
55488;DHT22;41352;53.158;6.788;2022-09-09T02:52:38;13.70;99.90
55488;DHT22;41352;53.158;6.788;2022-09-09T02:55:11;13.70;99.90
55488;DHT22;41352;53.158;6.788;2022-09-09T02:57:39;13.80;99.90
55488;DHT22;41352;53.158;6.788;2022-09-09T03:00:07;13.80;99.90
55488;DHT22;41352;53.158;6.788;2022-09-09T03:02:33;13.80;99.90
55488;DHT22;41352;53.158;6.788;2022-09-09T03:04:59;13.90;99.90
55488;DHT22;41352;53.158;6.788;2022-09-09T03:07:24;13.90;99.90
55488;DHT22;41352;53.158;6.788;2022-09-09T03:09:50;14.00;99.90
55488;DHT22;41352;53.158;6.788;2022-09-09T03:12:16;14.00;99.90
55488;DHT22;41352;53.158;6.788;2022-09-09T03:14:41;14.20;99.90
55488;DHT22;41352;53.158;6.788;2022-09-09T03:17:08;14.20;99.90
55488;DHT22;41352;53.158;6.788;2022-09-09T03:19:34;14.20;99.90
55488;DHT22;41352;53.158;6.788;2022-09-09T03:22:01;14.20;99.90
55488;DHT22;41352;53.158;6.788;2022-09-09T03:24:27;14.20;99.90
55488;DHT22;41352;53.158;6.788;2022-09-09T03:26:52;14.30;99.90
55488;DHT22;41352;53.158;6.788;2022-09-09T03:29:18;14.30;99.90
55488;DHT22;41352;53.158;6.788;2022-09-09T03:31:44;14.30;99.90
55488;DHT22;41352;53.158;6.788;2022-09-09T03:34:11;14.40;99.90
55488;DHT22;41352;53.158;6.788;2022-09-09T03:36:36;14.40;99.90
55488;DHT22;41352;53.158;6.788;2022-09-09T03:39:03;14.40;99.90
55488;DHT22;41352;53.158;6.788;2022-09-09T03:41:29;14.40;99.90
55488;DHT22;41352;53.158;6.788;2022-09-09T03:43:55;14.40;99.90
55488;DHT22;41352;53.158;6.788;2022-09-09T03:46:23;14.50;99.90
55488;DHT22;41352;53.158;6.788;2022-09-09T03:48:49;14.50;99.90
55488;DHT22;41352;53.158;6.788;2022-09-09T03:51:15;14.50;99.90
55488;DHT22;41352;53.158;6.788;2022-09-09T03:53:41;14.70;99.90
55488;DHT22;41352;53.158;6.788;2022-09-09T03:56:08;14.50;99.90
55488;DHT22;41352;53.158;6.788;2022-09-09T03:58:35;14.60;99.90
55488;DHT22;41352;53.158;6.788;2022-09-09T04:01:04;14.60;99.90
55488;DHT22;41352;53.158;6.788;2022-09-09T04:03:30;14.60;99.90
55488;DHT22;41352;53.158;6.788;2022-09-09T04:05:58;14.70;99.90
55488;DHT22;41352;53.158;6.788;2022-09-09T04:08:25;14.60;99.90
55488;DHT22;41352;53.158;6.788;2022-09-09T04:10:51;14.60;99.90
55488;DHT22;41352;53.158;6.788;2022-09-09T04:13:18;14.60;99.90
55488;DHT22;41352;53.158;6.788;2022-09-09T04:15:54;14.60;99.90
55488;DHT22;41352;53.158;6.788;2022-09-09T04:18:21;14.70;99.90
55488;DHT22;41352;53.158;6.788;2022-09-09T04:20:51;14.70;99.90
55488;DHT22;41352;53.158;6.788;2022-09-09T04:23:17;14.70;99.90
55488;DHT22;41352;53.158;6.788;2022-09-09T04:25:45;14.60;99.90
55488;DHT22;41352;53.158;6.788;2022-09-09T04:28:16;14.70;99.90
55488;DHT22;41352;53.158;6.788;2022-09-09T04:30:42;14.60;99.90
55488;DHT22;41352;53.158;6.788;2022-09-09T04:33:09;14.60;99.90
55488;DHT22;41352;53.158;6.788;2022-09-09T04:35:38;14.60;99.90
55488;DHT22;41352;53.158;6.788;2022-09-09T04:38:05;14.60;99.90
55488;DHT22;41352;53.158;6.788;2022-09-09T04:40:32;14.60;99.90
55488;DHT22;41352;53.158;6.788;2022-09-09T04:42:59;14.60;99.90
55488;DHT22;41352;53.158;6.788;2022-09-09T04:45:25;14.60;99.90
55488;DHT22;41352;53.158;6.788;2022-09-09T04:47:52;14.60;99.90
55488;DHT22;41352;53.158;6.788;2022-09-09T04:50:18;14.50;99.90
55488;DHT22;41352;53.158;6.788;2022-09-09T04:52:44;14.60;99.90
55488;DHT22;41352;53.158;6.788;2022-09-09T04:55:10;14.50;99.90
55488;DHT22;41352;53.158;6.788;2022-09-09T04:57:36;14.50;99.90
55488;DHT22;41352;53.158;6.788;2022-09-09T05:00:03;14.50;99.90
55488;DHT22;41352;53.158;6.788;2022-09-09T05:02:28;14.50;99.90
55488;DHT22;41352;53.158;6.788;2022-09-09T05:04:55;14.50;99.90
55488;DHT22;41352;53.158;6.788;2022-09-09T05:07:21;14.50;99.90
55488;DHT22;41352;53.158;6.788;2022-09-09T05:09:47;14.50;99.90
55488;DHT22;41352;53.158;6.788;2022-09-09T05:12:15;14.40;99.90
55488;DHT22;41352;53.158;6.788;2022-09-09T05:14:42;14.50;99.90
55488;DHT22;41352;53.158;6.788;2022-09-09T05:17:09;14.50;99.90
55488;DHT22;41352;53.158;6.788;2022-09-09T05:19:35;14.50;99.90
55488;DHT22;41352;53.158;6.788;2022-09-09T05:22:00;14.50;99.90
55488;DHT22;41352;53.158;6.788;2022-09-09T05:24:26;14.50;99.90
55488;DHT22;41352;53.158;6.788;2022-09-09T05:26:52;14.40;99.90
55488;DHT22;41352;53.158;6.788;2022-09-09T05:29:18;14.40;99.90
55488;DHT22;41352;53.158;6.788;2022-09-09T05:31:46;14.40;99.90
55488;DHT22;41352;53.158;6.788;2022-09-09T05:34:12;14.50;99.90
55488;DHT22;41352;53.158;6.788;2022-09-09T05:36:38;14.50;99.90
55488;DHT22;41352;53.158;6.788;2022-09-09T05:39:04;14.40;99.90
55488;DHT22;41352;53.158;6.788;2022-09-09T05:41:29;14.50;99.90
55488;DHT22;41352;53.158;6.788;2022-09-09T05:43:56;14.40;99.90
55488;DHT22;41352;53.158;6.788;2022-09-09T05:46:24;14.60;99.90
55488;DHT22;41352;53.158;6.788;2022-09-09T05:48:51;14.60;99.90
55488;DHT22;41352;53.158;6.788;2022-09-09T05:51:23;14.50;99.90
55488;DHT22;41352;53.158;6.788;2022-09-09T05:53:50;14.60;99.90
55488;DHT22;41352;53.158;6.788;2022-09-09T05:56:22;14.60;99.90
55488;DHT22;41352;53.158;6.788;2022-09-09T05:58:49;14.60;99.90
55488;DHT22;41352;53.158;6.788;2022-09-09T06:01:17;14.60;99.90
55488;DHT22;41352;53.158;6.788;2022-09-09T06:03:45;14.60;99.90
55488;DHT22;41352;53.158;6.788;2022-09-09T06:06:14;14.60;99.90
55488;DHT22;41352;53.158;6.788;2022-09-09T06:08:42;14.60;99.90
55488;DHT22;41352;53.158;6.788;2022-09-09T06:11:18;15.70;99.90
55488;DHT22;41352;53.158;6.788;2022-09-09T06:13:44;14.70;99.90
55488;DHT22;41352;53.158;6.788;2022-09-09T06:16:15;14.70;99.90
55488;DHT22;41352;53.158;6.788;2022-09-09T06:18:41;14.70;99.90
55488;DHT22;41352;53.158;6.788;2022-09-09T06:21:17;14.70;99.90
55488;DHT22;41352;53.158;6.788;2022-09-09T06:23:43;14.80;99.90
55488;DHT22;41352;53.158;6.788;2022-09-09T06:26:15;14.90;99.90
55488;DHT22;41352;53.158;6.788;2022-09-09T06:28:45;14.90;99.90
55488;DHT22;41352;53.158;6.788;2022-09-09T06:31:12;15.20;99.90
55488;DHT22;41352;53.158;6.788;2022-09-09T06:33:40;15.00;99.90
55488;DHT22;41352;53.158;6.788;2022-09-09T06:36:14;15.10;99.90
55488;DHT22;41352;53.158;6.788;2022-09-09T06:38:41;15.10;99.90
55488;DHT22;41352;53.158;6.788;2022-09-09T06:41:09;15.10;99.90
55488;DHT22;41352;53.158;6.788;2022-09-09T06:43:35;15.20;99.90
55488;DHT22;41352;53.158;6.788;2022-09-09T06:46:06;15.30;99.90
55488;DHT22;41352;53.158;6.788;2022-09-09T06:48:33;15.30;99.90
55488;DHT22;41352;53.158;6.788;2022-09-09T06:53:37;15.50;99.90
55488;DHT22;41352;53.158;6.788;2022-09-09T06:58:36;15.60;99.90
55488;DHT22;41352;53.158;6.788;2022-09-09T07:01:04;15.60;99.90
55488;DHT22;41352;53.158;6.788;2022-09-09T07:03:29;15.80;99.90
55488;DHT22;41352;53.158;6.788;2022-09-09T07:05:56;15.80;99.90
55488;DHT22;41352;53.158;6.788;2022-09-09T07:08:22;15.90;99.90
55488;DHT22;41352;53.158;6.788;2022-09-09T07:10:48;16.20;99.90
55488;DHT22;41352;53.158;6.788;2022-09-09T07:13:14;16.40;99.90
55488;DHT22;41352;53.158;6.788;2022-09-09T07:15:41;16.50;99.90
55488;DHT22;41352;53.158;6.788;2022-09-09T07:18:07;16.60;99.90
55488;DHT22;41352;53.158;6.788;2022-09-09T07:20:34;16.60;99.90
55488;DHT22;41352;53.158;6.788;2022-09-09T07:23:00;16.60;99.90
55488;DHT22;41352;53.158;6.788;2022-09-09T07:25:25;16.70;99.90
55488;DHT22;41352;53.158;6.788;2022-09-09T07:27:54;16.90;99.90
55488;DHT22;41352;53.158;6.788;2022-09-09T07:30:20;17.00;99.90
55488;DHT22;41352;53.158;6.788;2022-09-09T07:32:46;17.00;99.90
55488;DHT22;41352;53.158;6.788;2022-09-09T07:35:12;17.30;99.90
55488;DHT22;41352;53.158;6.788;2022-09-09T07:37:38;17.50;99.90
55488;DHT22;41352;53.158;6.788;2022-09-09T07:40:04;17.60;99.90
55488;DHT22;41352;53.158;6.788;2022-09-09T07:42:30;17.80;99.90
55488;DHT22;41352;53.158;6.788;2022-09-09T07:44:56;18.00;99.90
55488;DHT22;41352;53.158;6.788;2022-09-09T07:47:22;18.10;99.90
55488;DHT22;41352;53.158;6.788;2022-09-09T07:49:50;18.20;99.90
55488;DHT22;41352;53.158;6.788;2022-09-09T07:52:16;18.30;99.90
55488;DHT22;41352;53.158;6.788;2022-09-09T07:54:42;18.30;99.90
55488;DHT22;41352;53.158;6.788;2022-09-09T07:57:08;18.20;99.90
55488;DHT22;41352;53.158;6.788;2022-09-09T07:59:33;18.20;99.90
55488;DHT22;41352;53.158;6.788;2022-09-09T08:01:59;18.40;99.90
55488;DHT22;41352;53.158;6.788;2022-09-09T08:04:25;18.30;99.90
55488;DHT22;41352;53.158;6.788;2022-09-09T08:06:53;18.50;99.90
55488;DHT22;41352;53.158;6.788;2022-09-09T08:09:19;18.80;99.90
55488;DHT22;41352;53.158;6.788;2022-09-09T08:11:45;19.00;99.90
55488;DHT22;41352;53.158;6.788;2022-09-09T08:14:11;19.20;99.90
55488;DHT22;41352;53.158;6.788;2022-09-09T08:16:40;19.40;99.90
55488;DHT22;41352;53.158;6.788;2022-09-09T08:19:06;19.40;99.90
55488;DHT22;41352;53.158;6.788;2022-09-09T08:21:33;19.70;99.90
55488;DHT22;41352;53.158;6.788;2022-09-09T08:24:01;20.20;99.90
55488;DHT22;41352;53.158;6.788;2022-09-09T08:26:29;20.70;99.90
55488;DHT22;41352;53.158;6.788;2022-09-09T08:28:56;21.00;99.90
55488;DHT22;41352;53.158;6.788;2022-09-09T08:33:50;20.50;99.90
55488;DHT22;41352;53.158;6.788;2022-09-09T08:36:20;20.80;99.90
55488;DHT22;41352;53.158;6.788;2022-09-09T08:38:51;21.30;99.90
55488;DHT22;41352;53.158;6.788;2022-09-09T08:55:01;21.30;99.90
55488;DHT22;41352;53.158;6.788;2022-09-09T08:57:30;21.00;99.90
55488;DHT22;41352;53.158;6.788;2022-09-09T08:59:58;21.10;99.90
55488;DHT22;41352;53.158;6.788;2022-09-09T09:02:32;21.00;99.90
55488;DHT22;41352;53.158;6.788;2022-09-09T09:12:44;21.80;99.90
55488;DHT22;41352;53.158;6.788;2022-09-09T09:15:25;21.60;99.90
55488;DHT22;41352;53.158;6.788;2022-09-09T09:17:50;21.60;99.90
55488;DHT22;41352;53.158;6.788;2022-09-09T09:23:01;22.20;99.90
55488;DHT22;41352;53.158;6.788;2022-09-09T09:25:37;22.30;99.90
55488;DHT22;41352;53.158;6.788;2022-09-09T09:28:21;23.20;99.90
55488;DHT22;41352;53.158;6.788;2022-09-09T09:30:59;23.60;99.90
55488;DHT22;41352;53.158;6.788;2022-09-09T09:33:49;23.60;99.90
55488;DHT22;41352;53.158;6.788;2022-09-09T09:36:16;24.00;99.90
55488;DHT22;41352;53.158;6.788;2022-09-09T09:38:59;23.70;99.90
55488;DHT22;41352;53.158;6.788;2022-09-09T09:41:36;22.80;99.90
55488;DHT22;41352;53.158;6.788;2022-09-09T09:44:03;23.10;99.90
55488;DHT22;41352;53.158;6.788;2022-09-09T09:46:30;23.10;99.90
55488;DHT22;41352;53.158;6.788;2022-09-09T09:49:00;23.40;99.90
55488;DHT22;41352;53.158;6.788;2022-09-09T09:51:27;23.80;99.90
55488;DHT22;41352;53.158;6.788;2022-09-09T09:53:54;23.30;99.90
55488;DHT22;41352;53.158;6.788;2022-09-09T09:56:27;22.80;99.90
55488;DHT22;41352;53.158;6.788;2022-09-09T09:58:58;23.40;99.90
55488;DHT22;41352;53.158;6.788;2022-09-09T10:01:26;23.30;99.90
55488;DHT22;41352;53.158;6.788;2022-09-09T10:04:14;23.10;99.90
55488;DHT22;41352;53.158;6.788;2022-09-09T10:06:41;22.70;99.90
55488;DHT22;41352;53.158;6.788;2022-09-09T10:09:26;22.10;99.90
55488;DHT22;41352;53.158;6.788;2022-09-09T10:12:55;22.00;99.90
55488;DHT22;41352;53.158;6.788;2022-09-09T10:17:43;22.10;99.90
55488;DHT22;41352;53.158;6.788;2022-09-09T10:31:34;23.30;99.90
55488;DHT22;41352;53.158;6.788;2022-09-09T10:34:12;23.70;99.90
55488;DHT22;41352;53.158;6.788;2022-09-09T10:36:46;24.00;99.90
55488;DHT22;41352;53.158;6.788;2022-09-09T10:39:36;24.10;99.90
55488;DHT22;41352;53.158;6.788;2022-09-09T10:42:16;24.20;99.90
55488;DHT22;41352;53.158;6.788;2022-09-09T10:55:39;24.40;99.90
55488;DHT22;41352;53.158;6.788;2022-09-09T10:58:30;24.00;99.90
55488;DHT22;41352;53.158;6.788;2022-09-09T11:01:05;24.20;99.90
55488;DHT22;41352;53.158;6.788;2022-09-09T11:03:39;24.60;99.90
55488;DHT22;41352;53.158;6.788;2022-09-09T11:06:14;24.80;99.90
55488;DHT22;41352;53.158;6.788;2022-09-09T11:08:42;24.50;99.90
55488;DHT22;41352;53.158;6.788;2022-09-09T11:19:30;23.70;99.90
55488;DHT22;41352;53.158;6.788;2022-09-09T11:22:02;23.00;99.90
55488;DHT22;41352;53.158;6.788;2022-09-09T11:24:40;22.60;99.90
55488;DHT22;41352;53.158;6.788;2022-09-09T11:38:29;24.70;99.90
55488;DHT22;41352;53.158;6.788;2022-09-09T11:41:05;24.30;99.90
55488;DHT22;41352;53.158;6.788;2022-09-09T11:43:42;24.10;99.90
55488;DHT22;41352;53.158;6.788;2022-09-09T11:46:10;24.10;99.90
55488;DHT22;41352;53.158;6.788;2022-09-09T11:48:40;25.80;99.90
55488;DHT22;41352;53.158;6.788;2022-09-09T11:51:29;27.20;99.90
55488;DHT22;41352;53.158;6.788;2022-09-09T11:53:58;27.40;99.90
55488;DHT22;41352;53.158;6.788;2022-09-09T11:56:32;26.90;99.90
55488;DHT22;41352;53.158;6.788;2022-09-09T11:58:59;25.00;99.90
55488;DHT22;41352;53.158;6.788;2022-09-09T12:01:43;24.60;99.90
55488;DHT22;41352;53.158;6.788;2022-09-09T12:19:40;21.50;99.90
55488;DHT22;41352;53.158;6.788;2022-09-09T12:22:30;21.50;99.90
55488;DHT22;41352;53.158;6.788;2022-09-09T12:25:43;22.30;99.90
55488;DHT22;41352;53.158;6.788;2022-09-09T12:28:11;23.10;99.90
55488;DHT22;41352;53.158;6.788;2022-09-09T12:31:00;23.30;99.90
55488;DHT22;41352;53.158;6.788;2022-09-09T12:33:35;23.40;99.90
55488;DHT22;41352;53.158;6.788;2022-09-09T12:36:02;23.70;99.90
55488;DHT22;41352;53.158;6.788;2022-09-09T12:38:34;24.10;99.90
55488;DHT22;41352;53.158;6.788;2022-09-09T12:41:00;24.30;99.90
55488;DHT22;41352;53.158;6.788;2022-09-09T12:43:27;24.80;99.90
55488;DHT22;41352;53.158;6.788;2022-09-09T12:46:01;25.30;99.90
55488;DHT22;41352;53.158;6.788;2022-09-09T12:48:40;24.80;99.90
55488;DHT22;41352;53.158;6.788;2022-09-09T12:51:27;25.20;99.90
55488;DHT22;41352;53.158;6.788;2022-09-09T12:53:54;25.90;99.90
55488;DHT22;41352;53.158;6.788;2022-09-09T12:56:22;25.40;99.90
55488;DHT22;41352;53.158;6.788;2022-09-09T12:58:50;25.00;99.90
55488;DHT22;41352;53.158;6.788;2022-09-09T13:01:35;24.50;99.90
55488;DHT22;41352;53.158;6.788;2022-09-09T13:04:01;25.00;99.90
55488;DHT22;41352;53.158;6.788;2022-09-09T13:06:31;27.60;99.90
55488;DHT22;41352;53.158;6.788;2022-09-09T13:08:59;29.00;99.90
55488;DHT22;41352;53.158;6.788;2022-09-09T13:11:39;29.80;99.90
55488;DHT22;41352;53.158;6.788;2022-09-09T13:14:16;30.00;99.90
55488;DHT22;41352;53.158;6.788;2022-09-09T13:16:58;30.20;99.60
55488;DHT22;41352;53.158;6.788;2022-09-09T13:19:24;29.20;98.50
55488;DHT22;41352;53.158;6.788;2022-09-09T13:21:54;29.10;99.90
55488;DHT22;41352;53.158;6.788;2022-09-09T13:24:33;28.40;99.90
55488;DHT22;41352;53.158;6.788;2022-09-09T13:27:05;28.40;99.90
55488;DHT22;41352;53.158;6.788;2022-09-09T13:29:53;27.00;99.90
55488;DHT22;41352;53.158;6.788;2022-09-09T13:32:21;25.80;99.90
55488;DHT22;41352;53.158;6.788;2022-09-09T13:34:55;24.80;99.90
55488;DHT22;41352;53.158;6.788;2022-09-09T13:39:56;24.20;99.90
55488;DHT22;41352;53.158;6.788;2022-09-09T13:42:30;24.60;99.90
55488;DHT22;41352;53.158;6.788;2022-09-09T13:44:58;24.20;99.90
55488;DHT22;41352;53.158;6.788;2022-09-09T13:47:36;23.40;99.90
55488;DHT22;41352;53.158;6.788;2022-09-09T13:52:50;22.20;99.90
55488;DHT22;41352;53.158;6.788;2022-09-09T13:55:17;21.70;99.90
55488;DHT22;41352;53.158;6.788;2022-09-09T13:57:57;21.40;99.90
55488;DHT22;41352;53.158;6.788;2022-09-09T14:00:24;20.80;99.90
55488;DHT22;41352;53.158;6.788;2022-09-09T14:02:50;20.70;99.90
55488;DHT22;41352;53.158;6.788;2022-09-09T14:05:18;20.30;99.90
55488;DHT22;41352;53.158;6.788;2022-09-09T14:07:44;20.20;99.90
55488;DHT22;41352;53.158;6.788;2022-09-09T14:10:11;20.30;99.90
55488;DHT22;41352;53.158;6.788;2022-09-09T14:12:37;20.20;99.90
55488;DHT22;41352;53.158;6.788;2022-09-09T14:15:04;20.20;99.90
55488;DHT22;41352;53.158;6.788;2022-09-09T14:17:30;20.40;99.90
55488;DHT22;41352;53.158;6.788;2022-09-09T14:19:57;20.40;99.90
55488;DHT22;41352;53.158;6.788;2022-09-09T14:22:23;21.20;99.90
55488;DHT22;41352;53.158;6.788;2022-09-09T14:24:49;22.00;99.90
55488;DHT22;41352;53.158;6.788;2022-09-09T14:27:16;22.30;99.90
55488;DHT22;41352;53.158;6.788;2022-09-09T14:29:44;22.60;99.90
55488;DHT22;41352;53.158;6.788;2022-09-09T14:32:11;22.60;99.90
55488;DHT22;41352;53.158;6.788;2022-09-09T14:34:37;22.70;99.90
55488;DHT22;41352;53.158;6.788;2022-09-09T14:37:02;22.40;99.90
55488;DHT22;41352;53.158;6.788;2022-09-09T14:39:28;22.30;99.90
55488;DHT22;41352;53.158;6.788;2022-09-09T14:41:54;22.00;99.90
55488;DHT22;41352;53.158;6.788;2022-09-09T14:44:20;21.50;99.90
55488;DHT22;41352;53.158;6.788;2022-09-09T14:46:46;21.30;99.90
55488;DHT22;41352;53.158;6.788;2022-09-09T14:49:11;21.00;99.90
55488;DHT22;41352;53.158;6.788;2022-09-09T14:51:38;20.80;99.90
55488;DHT22;41352;53.158;6.788;2022-09-09T14:54:04;20.30;99.90
55488;DHT22;41352;53.158;6.788;2022-09-09T14:56:32;20.00;99.90
55488;DHT22;41352;53.158;6.788;2022-09-09T14:59:00;19.80;99.90
55488;DHT22;41352;53.158;6.788;2022-09-09T15:01:27;20.00;99.90
55488;DHT22;41352;53.158;6.788;2022-09-09T15:03:55;20.20;99.90
55488;DHT22;41352;53.158;6.788;2022-09-09T15:06:22;20.30;99.90
55488;DHT22;41352;53.158;6.788;2022-09-09T15:08:51;20.20;99.90
55488;DHT22;41352;53.158;6.788;2022-09-09T15:11:17;20.20;99.90
55488;DHT22;41352;53.158;6.788;2022-09-09T15:13:44;20.20;99.90
55488;DHT22;41352;53.158;6.788;2022-09-09T15:16:15;20.20;99.90
55488;DHT22;41352;53.158;6.788;2022-09-09T15:18:41;20.30;99.90
55488;DHT22;41352;53.158;6.788;2022-09-09T15:21:13;20.30;99.90
55488;DHT22;41352;53.158;6.788;2022-09-09T15:23:39;20.40;99.90
55488;DHT22;41352;53.158;6.788;2022-09-09T15:26:05;20.50;99.90
55488;DHT22;41352;53.158;6.788;2022-09-09T15:28:33;20.60;99.90
55488;DHT22;41352;53.158;6.788;2022-09-09T15:31:12;21.10;99.90
55488;DHT22;41352;53.158;6.788;2022-09-09T15:34:05;21.70;99.90
55488;DHT22;41352;53.158;6.788;2022-09-09T15:36:32;21.90;99.90
55488;DHT22;41352;53.158;6.788;2022-09-09T15:38:59;21.90;99.90
55488;DHT22;41352;53.158;6.788;2022-09-09T15:41:26;22.00;99.90
55488;DHT22;41352;53.158;6.788;2022-09-09T15:43:54;22.10;99.90
55488;DHT22;41352;53.158;6.788;2022-09-09T15:51:45;22.40;99.90
55488;DHT22;41352;53.158;6.788;2022-09-09T15:54:19;22.30;99.90
55488;DHT22;41352;53.158;6.788;2022-09-09T15:56:55;22.30;99.90
55488;DHT22;41352;53.158;6.788;2022-09-09T15:59:26;22.00;99.90
55488;DHT22;41352;53.158;6.788;2022-09-09T16:01:53;21.70;99.90
55488;DHT22;41352;53.158;6.788;2022-09-09T16:04:21;21.50;99.90
55488;DHT22;41352;53.158;6.788;2022-09-09T16:09:23;20.90;99.90
55488;DHT22;41352;53.158;6.788;2022-09-09T16:11:50;20.60;99.90
55488;DHT22;41352;53.158;6.788;2022-09-09T16:14:19;20.40;99.90
55488;DHT22;41352;53.158;6.788;2022-09-09T16:16:45;20.20;99.90
55488;DHT22;41352;53.158;6.788;2022-09-09T16:19:12;19.90;99.90
55488;DHT22;41352;53.158;6.788;2022-09-09T16:21:49;19.80;99.90
55488;DHT22;41352;53.158;6.788;2022-09-09T16:24:19;19.90;99.90
55488;DHT22;41352;53.158;6.788;2022-09-09T16:26:48;19.80;99.90
55488;DHT22;41352;53.158;6.788;2022-09-09T16:29:15;19.80;99.90
55488;DHT22;41352;53.158;6.788;2022-09-09T16:31:42;19.80;99.90
55488;DHT22;41352;53.158;6.788;2022-09-09T16:34:09;19.70;99.90
55488;DHT22;41352;53.158;6.788;2022-09-09T16:36:37;19.60;99.90
55488;DHT22;41352;53.158;6.788;2022-09-09T16:39:06;19.60;99.90
55488;DHT22;41352;53.158;6.788;2022-09-09T16:41:34;19.30;99.90
55488;DHT22;41352;53.158;6.788;2022-09-09T16:44:05;19.20;99.90
55488;DHT22;41352;53.158;6.788;2022-09-09T16:46:32;19.30;99.90
55488;DHT22;41352;53.158;6.788;2022-09-09T16:49:00;19.00;99.90
55488;DHT22;41352;53.158;6.788;2022-09-09T16:51:29;19.00;99.90
55488;DHT22;41352;53.158;6.788;2022-09-09T16:53:57;19.00;99.90
55488;DHT22;41352;53.158;6.788;2022-09-09T16:56:26;18.90;99.90
55488;DHT22;41352;53.158;6.788;2022-09-09T16:59:00;18.80;99.90
55488;DHT22;41352;53.158;6.788;2022-09-09T17:01:29;18.70;99.90
55488;DHT22;41352;53.158;6.788;2022-09-09T17:03:56;18.60;99.90
55488;DHT22;41352;53.158;6.788;2022-09-09T17:06:22;18.50;99.90
55488;DHT22;41352;53.158;6.788;2022-09-09T17:08:57;18.50;99.90
55488;DHT22;41352;53.158;6.788;2022-09-09T17:11:24;18.40;99.90
55488;DHT22;41352;53.158;6.788;2022-09-09T17:13:50;18.30;99.90
55488;DHT22;41352;53.158;6.788;2022-09-09T17:16:18;18.30;99.90
55488;DHT22;41352;53.158;6.788;2022-09-09T17:18:45;18.20;99.90
55488;DHT22;41352;53.158;6.788;2022-09-09T17:21:13;18.10;99.90
55488;DHT22;41352;53.158;6.788;2022-09-09T17:23:41;18.10;99.90
55488;DHT22;41352;53.158;6.788;2022-09-09T17:26:09;18.00;99.90
55488;DHT22;41352;53.158;6.788;2022-09-09T17:28:39;18.00;99.90
55488;DHT22;41352;53.158;6.788;2022-09-09T17:31:06;18.00;99.90
55488;DHT22;41352;53.158;6.788;2022-09-09T17:33:37;17.90;99.90
55488;DHT22;41352;53.158;6.788;2022-09-09T17:36:09;17.90;99.90
55488;DHT22;41352;53.158;6.788;2022-09-09T17:38:35;17.90;99.90
55488;DHT22;41352;53.158;6.788;2022-09-09T17:41:06;17.90;99.90
55488;DHT22;41352;53.158;6.788;2022-09-09T17:43:32;17.80;99.90
55488;DHT22;41352;53.158;6.788;2022-09-09T17:46:10;17.80;99.90
55488;DHT22;41352;53.158;6.788;2022-09-09T17:48:36;17.80;99.90
55488;DHT22;41352;53.158;6.788;2022-09-09T17:51:06;17.80;99.90
55488;DHT22;41352;53.158;6.788;2022-09-09T17:53:41;17.80;99.90
55488;DHT22;41352;53.158;6.788;2022-09-09T17:56:10;17.80;99.90
55488;DHT22;41352;53.158;6.788;2022-09-09T17:58:37;17.70;99.90
55488;DHT22;41352;53.158;6.788;2022-09-09T18:01:13;17.70;99.90
55488;DHT22;41352;53.158;6.788;2022-09-09T18:03:40;17.60;99.90
55488;DHT22;41352;53.158;6.788;2022-09-09T18:06:13;17.60;99.90
55488;DHT22;41352;53.158;6.788;2022-09-09T18:08:41;17.60;99.90
55488;DHT22;41352;53.158;6.788;2022-09-09T18:11:07;17.50;99.90
55488;DHT22;41352;53.158;6.788;2022-09-09T18:13:34;17.50;99.90
55488;DHT22;41352;53.158;6.788;2022-09-09T18:16:01;17.40;99.90
55488;DHT22;41352;53.158;6.788;2022-09-09T18:18:28;17.40;99.90
55488;DHT22;41352;53.158;6.788;2022-09-09T18:21:02;17.30;99.90
55488;DHT22;41352;53.158;6.788;2022-09-09T18:23:37;17.30;99.90